Aviation Digital Data Service (ADDS)

Output produced by METARs form (1938 UTC 22 May 2019)
found at http://aviationweather.gov/metar/data/
 
TAF EDDW 221700Z 2218/2318 31009KT 9999 SCT035 
     BECMG 2219/2221 VRB03KT 
     BECMG 2300/2302 2500 BCFG 
     TEMPO 2302/2305 0800 FG 
     BECMG 2304/2306 9999 
     BECMG 2306/2308 25006KT